createdAt,value
2019-05-18T00:01:23.965Z,11.00
2019-05-18T00:03:52.555Z,11.00
2019-05-18T00:06:21.123Z,11.00
2019-05-18T00:08:49.711Z,11.00
2019-05-18T00:11:18.283Z,11.00
2019-05-18T00:13:46.944Z,10.90
2019-05-18T00:16:15.515Z,11.00
2019-05-18T00:18:44.121Z,10.90
2019-05-18T00:21:12.714Z,10.90
2019-05-18T00:23:41.272Z,10.90
2019-05-18T00:26:09.867Z,10.80
2019-05-18T00:28:38.435Z,10.80
2019-05-18T00:31:07.046Z,10.80
2019-05-18T00:33:35.623Z,10.80
2019-05-18T00:36:04.779Z,10.80
2019-05-18T00:38:33.342Z,10.80
2019-05-18T00:41:02.013Z,10.80
2019-05-18T00:43:30.577Z,10.80
2019-05-18T00:45:59.170Z,10.80
2019-05-18T00:48:27.743Z,10.70
2019-05-18T00:50:56.327Z,10.70
2019-05-18T00:53:24.892Z,10.70
2019-05-18T00:55:53.484Z,10.70
2019-05-18T00:58:22.139Z,10.70
2019-05-18T01:00:50.798Z,10.70
2019-05-18T01:03:19.295Z,10.70
2019-05-18T01:05:47.887Z,10.60
2019-05-18T01:08:16.527Z,10.50
2019-05-18T01:10:45.187Z,10.50
2019-05-18T01:13:13.759Z,10.40
2019-05-18T01:15:42.344Z,10.30
2019-05-18T01:18:10.975Z,10.40
2019-05-18T01:20:39.813Z,10.40
2019-05-18T01:23:08.727Z,10.30
2019-05-18T01:25:37.311Z,10.30
2019-05-18T01:28:05.880Z,10.30
2019-05-18T01:30:34.535Z,10.30
2019-05-18T01:33:03.393Z,10.30
2019-05-18T01:35:31.971Z,10.30
2019-05-18T01:38:00.543Z,10.30
2019-05-18T01:40:29.168Z,10.20
2019-05-18T01:42:57.743Z,10.20
2019-05-18T01:45:26.333Z,10.20
2019-05-18T01:47:54.904Z,10.20
2019-05-18T01:50:23.498Z,10.10
2019-05-18T01:52:52.063Z,10.10
2019-05-18T01:55:20.677Z,10.10
2019-05-18T01:57:49.250Z,10.10
2019-05-18T02:00:19.307Z,10.10
2019-05-18T02:02:47.883Z,10.10
2019-05-18T02:05:16.618Z,10.00
2019-05-18T02:07:45.179Z,10.00
2019-05-18T02:10:14.015Z,9.90
2019-05-18T02:12:42.574Z,9.90
2019-05-18T02:15:12.110Z,9.90
2019-05-18T02:17:40.672Z,9.90
2019-05-18T02:20:09.595Z,9.80
2019-05-18T02:22:38.160Z,9.80
2019-05-18T02:25:07.386Z,9.80
2019-05-18T02:27:36.015Z,9.80
2019-05-18T02:30:07.248Z,9.70
2019-05-18T02:32:35.941Z,9.70
2019-05-18T02:35:05.872Z,9.70
2019-05-18T02:37:35.226Z,9.60
2019-05-18T02:40:05.460Z,9.60
2019-05-18T02:42:34.024Z,9.60
2019-05-18T02:45:02.583Z,9.60
2019-05-18T02:47:31.176Z,9.60
2019-05-18T02:49:59.807Z,9.60
2019-05-18T02:52:28.396Z,9.50
2019-05-18T02:54:56.962Z,9.50
2019-05-18T02:57:25.548Z,9.50
2019-05-18T02:59:54.115Z,9.50
2019-05-18T03:02:22.708Z,9.50
2019-05-18T03:04:51.263Z,9.50
2019-05-18T03:07:19.851Z,9.50
2019-05-18T03:09:48.421Z,9.50
2019-05-18T03:12:17.003Z,9.40
2019-05-18T03:14:45.655Z,9.40
2019-05-18T03:17:14.302Z,9.40
2019-05-18T03:19:42.937Z,9.40
2019-05-18T03:22:11.525Z,9.40
2019-05-18T03:24:40.087Z,9.40
2019-05-18T03:27:08.681Z,9.30
2019-05-18T03:29:37.241Z,9.40
2019-05-18T03:32:05.854Z,9.30
2019-05-18T03:34:34.405Z,9.30
2019-05-18T03:37:02.984Z,9.30
2019-05-18T03:39:31.627Z,9.30
2019-05-18T03:42:00.234Z,9.30
2019-05-18T03:44:28.821Z,9.20
2019-05-18T03:46:57.395Z,9.30
2019-05-18T03:49:27.621Z,9.20
2019-05-18T03:51:56.194Z,9.20
2019-05-18T03:54:24.754Z,9.10
2019-05-18T03:56:53.352Z,9.10
2019-05-18T03:59:21.913Z,9.10
2019-05-18T04:01:50.504Z,9.10
2019-05-18T04:04:19.081Z,9.10
2019-05-18T04:06:47.661Z,9.00
2019-05-18T04:09:16.229Z,9.00
2019-05-18T04:11:44.819Z,9.00
2019-05-18T04:14:13.386Z,8.90
2019-05-18T04:16:41.958Z,8.90
2019-05-18T04:19:10.533Z,9.00
2019-05-18T04:21:39.120Z,9.00
2019-05-18T04:24:07.762Z,9.00
2019-05-18T04:26:36.417Z,9.10
2019-05-18T04:29:05.724Z,9.10
2019-05-18T04:31:34.317Z,9.10
2019-05-18T04:34:02.897Z,9.20
2019-05-18T04:36:31.464Z,9.20
2019-05-18T04:39:00.032Z,9.30
2019-05-18T04:41:28.591Z,9.30
2019-05-18T04:43:57.192Z,9.40
2019-05-18T04:46:25.823Z,9.40
2019-05-18T04:48:54.425Z,9.40
2019-05-18T04:51:23.049Z,9.50
2019-05-18T04:53:51.639Z,9.60
2019-05-18T04:56:20.203Z,9.60
2019-05-18T04:58:48.850Z,9.70
2019-05-18T05:01:17.412Z,9.70
2019-05-18T05:03:46.000Z,9.80
2019-05-18T05:06:14.575Z,9.80
2019-05-18T05:08:43.327Z,9.90
2019-05-18T05:11:11.900Z,9.90
2019-05-18T05:13:40.489Z,10.00
2019-05-18T05:16:09.056Z,10.10
2019-05-18T05:18:37.655Z,10.20
2019-05-18T05:21:07.200Z,10.30
2019-05-18T05:23:35.932Z,10.40
2019-05-18T05:26:04.570Z,10.50
2019-05-18T05:28:33.162Z,10.60
2019-05-18T05:31:01.795Z,10.70
2019-05-18T05:33:30.438Z,10.70
2019-05-18T05:35:58.955Z,10.80
2019-05-18T05:38:27.561Z,10.90
2019-05-18T05:40:56.144Z,11.00
2019-05-18T05:43:24.724Z,11.10
2019-05-18T05:45:53.284Z,11.20
2019-05-18T05:48:21.879Z,11.30
2019-05-18T05:50:50.453Z,11.40
2019-05-18T05:53:19.113Z,11.50
2019-05-18T05:55:47.680Z,11.60
2019-05-18T05:58:16.280Z,11.70
2019-05-18T06:00:44.851Z,11.80
2019-05-18T06:03:13.438Z,11.90
2019-05-18T06:05:42.009Z,12.00
2019-05-18T06:08:10.595Z,12.10
2019-05-18T06:10:39.164Z,12.20
2019-05-18T06:13:07.763Z,12.30
2019-05-18T06:15:36.491Z,12.40
2019-05-18T06:18:05.160Z,12.50
2019-05-18T06:20:33.736Z,12.50
2019-05-18T06:23:03.404Z,12.60
2019-05-18T06:25:34.296Z,12.70
2019-05-18T06:28:02.308Z,12.80
2019-05-18T06:30:30.872Z,12.90
2019-05-18T06:32:59.445Z,13.10
2019-05-18T06:35:28.037Z,13.10
2019-05-18T06:37:56.609Z,13.30
2019-05-18T06:40:25.184Z,13.40
2019-05-18T06:42:54.067Z,13.50
2019-05-18T06:45:22.731Z,13.60
2019-05-18T06:47:51.304Z,13.70
2019-05-18T06:50:31.056Z,13.70
2019-05-18T06:52:59.645Z,13.80
2019-05-18T06:55:28.307Z,13.90
2019-05-18T06:57:58.216Z,14.00
2019-05-18T07:00:27.352Z,14.10
2019-05-18T07:02:55.929Z,14.20
2019-05-18T07:05:24.511Z,14.40
2019-05-18T07:07:53.074Z,14.40
2019-05-18T07:10:21.918Z,14.40
2019-05-18T07:12:50.687Z,14.40
2019-05-18T07:15:20.614Z,14.40
2019-05-18T07:17:49.175Z,14.40
2019-05-18T07:20:18.120Z,14.50
2019-05-18T07:22:46.682Z,14.50
2019-05-18T07:25:15.916Z,14.60
2019-05-18T07:27:44.491Z,14.70
2019-05-18T07:30:13.623Z,14.90
2019-05-18T07:32:42.256Z,15.10
2019-05-18T07:35:12.199Z,15.20
2019-05-18T07:37:40.838Z,15.40
2019-05-18T07:40:09.971Z,15.60
2019-05-18T07:42:38.547Z,15.70
2019-05-18T07:45:08.274Z,15.80
2019-05-18T07:47:36.920Z,15.90
2019-05-18T07:50:07.527Z,16.00
2019-05-18T07:52:36.171Z,16.10
2019-05-18T07:55:06.243Z,16.30
2019-05-18T07:57:34.817Z,16.50
2019-05-18T08:00:03.851Z,16.70
2019-05-18T08:02:32.460Z,16.80
2019-05-18T08:05:01.045Z,16.90
2019-05-18T08:07:29.613Z,17.00
2019-05-18T08:09:58.270Z,17.10
2019-05-18T08:12:26.849Z,17.20
2019-05-18T08:14:55.455Z,17.30
2019-05-18T08:17:24.024Z,17.40
2019-05-18T08:19:52.614Z,17.60
2019-05-18T08:22:21.192Z,17.70
2019-05-18T08:24:49.782Z,17.80
2019-05-18T08:27:18.346Z,17.80
2019-05-18T08:29:46.942Z,17.90
2019-05-18T08:32:15.503Z,18.00
2019-05-18T08:34:44.096Z,18.10
2019-05-18T08:37:12.663Z,18.20
2019-05-18T08:39:41.290Z,18.20
2019-05-18T08:42:09.829Z,18.30
2019-05-18T08:44:38.576Z,18.40
2019-05-18T08:47:07.146Z,18.40
2019-05-18T08:49:35.711Z,18.50
2019-05-18T08:52:08.191Z,18.60
2019-05-18T08:54:34.590Z,18.70
2019-05-18T08:57:03.184Z,18.80
2019-05-18T08:59:31.787Z,19.00
2019-05-18T09:02:00.389Z,19.10
2019-05-18T09:04:28.968Z,19.20
2019-05-18T09:06:57.563Z,19.30
2019-05-18T09:09:26.139Z,19.40
2019-05-18T09:11:54.726Z,19.50
2019-05-18T09:14:23.302Z,19.60
2019-05-18T09:16:52.265Z,19.60
2019-05-18T09:19:20.834Z,19.70
2019-05-18T09:21:49.421Z,19.80
2019-05-18T09:24:17.995Z,19.90
2019-05-18T09:26:46.584Z,20.00
2019-05-18T09:29:15.160Z,20.20
2019-05-18T09:31:43.749Z,20.40
2019-05-18T09:34:12.327Z,20.50
2019-05-18T09:36:40.923Z,20.60
2019-05-18T09:39:09.575Z,20.80
2019-05-18T09:41:57.511Z,20.90
2019-05-18T09:44:26.079Z,21.00
2019-05-18T09:46:54.673Z,21.10
2019-05-18T09:49:23.317Z,21.20
2019-05-18T09:51:51.913Z,21.40
2019-05-18T09:54:20.484Z,21.40
2019-05-18T09:56:49.078Z,21.30
2019-05-18T09:59:17.643Z,21.30
2019-05-18T10:01:46.244Z,21.30
2019-05-18T10:04:14.882Z,21.40
2019-05-18T10:06:43.644Z,21.60
2019-05-18T10:09:12.281Z,21.60
2019-05-18T10:11:40.878Z,21.60
2019-05-18T10:14:09.449Z,21.60
2019-05-18T10:16:38.033Z,21.80
2019-05-18T10:19:06.607Z,21.90
2019-05-18T10:21:35.211Z,22.10
2019-05-18T10:24:03.787Z,22.40
2019-05-18T10:26:32.380Z,22.50
2019-05-18T10:29:01.131Z,22.70
2019-05-18T10:31:29.731Z,22.70
2019-05-18T10:33:58.297Z,22.80
2019-05-18T10:36:26.893Z,22.80
2019-05-18T10:38:55.459Z,22.90
2019-05-18T10:41:24.056Z,23.00
2019-05-18T10:43:52.703Z,23.10
2019-05-18T10:46:21.279Z,23.20
2019-05-18T10:48:50.215Z,23.30
2019-05-18T10:51:18.951Z,23.50
2019-05-18T10:53:47.547Z,23.60
2019-05-18T10:56:16.114Z,23.60
2019-05-18T10:58:44.711Z,23.80
2019-05-18T11:01:13.338Z,24.00
2019-05-18T11:03:41.931Z,24.10
2019-05-18T11:06:10.576Z,24.10
2019-05-18T11:08:39.159Z,24.20
2019-05-18T11:11:07.726Z,24.30
2019-05-18T11:13:36.463Z,24.50
2019-05-18T11:16:05.128Z,24.60
2019-05-18T11:18:33.699Z,24.70
2019-05-18T11:21:02.295Z,24.80
2019-05-18T11:23:42.773Z,24.90
2019-05-18T11:26:01.096Z,25.10
2019-05-18T11:28:29.695Z,25.20
2019-05-18T11:30:58.277Z,25.30
2019-05-18T11:33:26.863Z,25.40
2019-05-18T11:35:55.599Z,25.60
2019-05-18T11:38:24.205Z,25.70
2019-05-18T11:40:52.770Z,25.80
2019-05-18T11:43:21.369Z,25.90
2019-05-18T11:45:49.938Z,26.10
2019-05-18T11:48:18.527Z,26.20
2019-05-18T11:50:47.100Z,26.30
2019-05-18T11:53:15.759Z,26.40
2019-05-18T11:55:44.333Z,26.50
2019-05-18T11:58:13.267Z,26.60
2019-05-18T12:00:41.842Z,26.70
2019-05-18T12:03:10.433Z,26.80
2019-05-18T12:05:38.997Z,26.90
2019-05-18T12:08:07.611Z,26.90
2019-05-18T12:10:36.172Z,27.00
2019-05-18T12:13:04.824Z,27.00
2019-05-18T12:15:33.404Z,27.20
2019-05-18T12:18:01.995Z,27.30
2019-05-18T12:20:30.608Z,27.50
2019-05-18T12:22:59.182Z,27.50
2019-05-18T12:25:27.747Z,27.40
2019-05-18T12:27:56.439Z,27.40
2019-05-18T12:30:26.043Z,27.50
2019-05-18T12:32:54.635Z,27.70
2019-05-18T12:35:23.218Z,27.80
2019-05-18T12:37:51.795Z,28.00
2019-05-18T12:40:21.397Z,28.20
2019-05-18T12:42:50.067Z,28.10
2019-05-18T12:45:19.067Z,28.00
2019-05-18T12:47:47.656Z,27.90
2019-05-18T12:50:17.167Z,28.00
2019-05-18T12:52:45.756Z,28.10
2019-05-18T12:55:14.867Z,28.30
2019-05-18T12:57:43.484Z,28.50
2019-05-18T13:00:14.070Z,28.60
2019-05-18T13:02:42.729Z,28.70
2019-05-18T13:05:11.644Z,28.90
2019-05-18T13:07:40.211Z,29.00
2019-05-18T13:10:10.459Z,29.10
2019-05-18T13:12:39.061Z,29.00
2019-05-18T13:15:09.154Z,29.10
2019-05-18T13:17:37.800Z,29.20
2019-05-18T13:20:08.325Z,29.40
2019-05-18T13:22:36.903Z,29.60
2019-05-18T13:25:07.031Z,29.70
2019-05-18T13:27:39.575Z,29.70
2019-05-18T13:30:08.680Z,29.70
2019-05-18T13:32:37.234Z,29.70
2019-05-18T13:35:07.835Z,29.80
2019-05-18T13:37:36.407Z,29.70
2019-05-18T13:40:07.004Z,29.50
2019-05-18T13:42:36.007Z,29.50
2019-05-18T13:45:07.887Z,29.50
2019-05-18T13:47:36.875Z,29.70
2019-05-18T13:50:06.578Z,29.90
2019-05-18T13:52:35.901Z,30.10
2019-05-18T13:55:06.438Z,30.20
2019-05-18T13:57:35.908Z,30.10
2019-05-18T14:00:07.153Z,30.20
2019-05-18T14:02:36.396Z,30.10
2019-05-18T14:05:08.313Z,30.10
2019-05-18T14:07:37.830Z,30.20
2019-05-18T14:10:12.085Z,30.20
2019-05-18T14:12:39.123Z,30.20
2019-05-18T14:15:08.859Z,30.30
2019-05-18T14:17:37.853Z,30.50
2019-05-18T14:20:07.471Z,30.60
2019-05-18T14:22:36.538Z,30.60
2019-05-18T14:25:18.871Z,30.70
2019-05-18T14:27:39.879Z,30.80
2019-05-18T14:30:09.536Z,30.90
2019-05-18T14:32:38.080Z,30.90
2019-05-18T14:35:08.625Z,30.70
2019-05-18T14:37:37.550Z,30.80
2019-05-18T14:40:07.651Z,31.00
2019-05-18T14:42:36.711Z,31.20
2019-05-18T14:45:07.595Z,31.10
2019-05-18T14:47:36.503Z,31.20
2019-05-18T14:50:06.480Z,31.20
2019-05-18T14:52:37.976Z,31.10
2019-05-18T14:55:08.878Z,31.20
2019-05-18T14:57:38.026Z,31.40
2019-05-18T15:00:07.347Z,31.50
2019-05-18T15:02:35.914Z,31.70
2019-05-18T15:05:07.319Z,31.80
2019-05-18T15:07:35.958Z,31.90
2019-05-18T15:10:07.588Z,32.00
2019-05-18T15:12:36.131Z,32.20
2019-05-18T15:15:06.932Z,32.30
2019-05-18T15:17:35.566Z,32.40
2019-05-18T15:20:06.499Z,32.30
2019-05-18T15:22:35.140Z,32.40
2019-05-18T15:25:03.896Z,32.40
2019-05-18T15:27:32.461Z,32.30
2019-05-18T15:30:01.126Z,32.50
2019-05-18T15:32:29.688Z,32.60
2019-05-18T15:34:58.359Z,32.70
2019-05-18T15:37:26.930Z,32.80
2019-05-18T15:39:55.520Z,33.00
2019-05-18T15:42:24.103Z,33.20
2019-05-18T15:44:52.686Z,33.40
2019-05-18T15:47:21.255Z,33.50
2019-05-18T15:49:49.916Z,33.50
2019-05-18T15:52:18.487Z,33.40
2019-05-18T15:54:47.075Z,33.70
2019-05-18T15:57:15.657Z,33.90
2019-05-18T15:59:44.236Z,33.80
2019-05-18T16:02:12.811Z,33.90
2019-05-18T16:04:41.403Z,34.00
2019-05-18T16:07:10.045Z,34.00
2019-05-18T16:09:38.702Z,34.10
2019-05-18T16:12:07.267Z,34.20
2019-05-18T16:14:35.930Z,34.30
2019-05-18T16:17:04.499Z,34.40
2019-05-18T16:19:33.091Z,34.70
2019-05-18T16:22:01.729Z,34.80
2019-05-18T16:24:30.431Z,34.90
2019-05-18T16:26:59.091Z,35.00
2019-05-18T16:29:27.671Z,35.10
2019-05-18T16:31:56.335Z,35.10
2019-05-18T16:34:24.935Z,35.10
2019-05-18T16:36:53.486Z,35.10
2019-05-18T16:39:22.060Z,35.20
2019-05-18T16:41:50.650Z,35.40
2019-05-18T16:44:19.218Z,35.40
2019-05-18T16:46:47.816Z,35.60
2019-05-18T16:49:16.382Z,35.60
2019-05-18T16:51:44.985Z,35.60
2019-05-18T16:54:16.697Z,35.70
2019-05-18T16:56:45.288Z,35.70
2019-05-18T16:59:13.859Z,35.90
2019-05-18T17:01:42.455Z,35.90
2019-05-18T17:04:11.026Z,35.90
2019-05-18T17:06:39.622Z,35.70
2019-05-18T17:09:08.181Z,35.50
2019-05-18T17:11:36.847Z,35.40
2019-05-18T17:14:05.416Z,35.30
2019-05-18T17:16:34.008Z,35.10
2019-05-18T17:19:02.952Z,35.00
2019-05-18T17:21:31.542Z,34.90
2019-05-18T17:24:00.111Z,34.70
2019-05-18T17:26:28.703Z,34.70
2019-05-18T17:28:57.275Z,34.60
2019-05-18T17:31:25.863Z,34.50
2019-05-18T17:33:54.431Z,34.60
2019-05-18T17:36:23.025Z,34.70
2019-05-18T17:38:51.622Z,34.90
2019-05-18T17:41:20.225Z,35.10
2019-05-18T17:43:48.780Z,35.40
2019-05-18T17:46:17.371Z,35.60
2019-05-18T17:48:45.954Z,35.80
2019-05-18T17:51:14.548Z,35.70
2019-05-18T17:53:43.115Z,35.30
2019-05-18T17:56:11.715Z,34.50
2019-05-18T17:58:40.285Z,33.80
2019-05-18T18:01:08.883Z,33.20
2019-05-18T18:03:37.450Z,32.60
2019-05-18T18:06:06.045Z,32.00
2019-05-18T18:08:34.615Z,31.60
2019-05-18T18:11:03.217Z,31.10
2019-05-18T18:13:31.777Z,30.70
2019-05-18T18:16:00.375Z,30.30
2019-05-18T18:18:28.935Z,29.90
2019-05-18T18:20:57.525Z,29.60
2019-05-18T18:23:26.261Z,29.30
2019-05-18T18:25:54.862Z,29.00
2019-05-18T18:28:23.427Z,28.80
2019-05-18T18:30:52.014Z,28.60
2019-05-18T18:33:20.583Z,28.30
2019-05-18T18:35:49.179Z,28.20
2019-05-18T18:38:17.742Z,27.90
2019-05-18T18:40:46.315Z,27.70
2019-05-18T18:43:15.082Z,27.50
2019-05-18T18:45:44.057Z,27.40
2019-05-18T18:48:12.649Z,27.20
2019-05-18T18:50:41.242Z,27.00
2019-05-18T18:53:09.794Z,26.80
2019-05-18T18:55:38.426Z,26.60
2019-05-18T18:58:07.107Z,26.40
2019-05-18T19:00:35.747Z,26.20
2019-05-18T19:03:04.411Z,26.00
2019-05-18T19:05:32.979Z,25.90
2019-05-18T19:08:01.759Z,25.70
2019-05-18T19:10:30.391Z,25.50
2019-05-18T19:12:58.984Z,25.40
2019-05-18T19:15:27.556Z,25.20
2019-05-18T19:17:56.138Z,25.00
2019-05-18T19:20:24.709Z,24.80
2019-05-18T19:22:53.291Z,24.60
2019-05-18T19:25:21.860Z,24.30
2019-05-18T19:27:54.943Z,24.20
2019-05-18T19:30:20.736Z,24.00
2019-05-18T19:32:49.328Z,23.80
2019-05-18T19:35:17.970Z,23.60
2019-05-18T19:37:46.562Z,23.50
2019-05-18T19:40:17.278Z,23.30
2019-05-18T19:42:45.863Z,23.10
2019-05-18T19:45:14.634Z,22.90
2019-05-18T19:47:43.195Z,22.80
2019-05-18T19:50:12.213Z,22.70
2019-05-18T19:52:40.807Z,22.50
2019-05-18T19:55:09.609Z,22.40
2019-05-18T19:57:38.228Z,22.20
2019-05-18T20:00:07.650Z,22.10
2019-05-18T20:02:36.259Z,22.00
2019-05-18T20:05:08.919Z,21.80
2019-05-18T20:07:38.143Z,21.70
2019-05-18T20:10:10.528Z,21.50
2019-05-18T20:12:39.110Z,21.40
2019-05-18T20:15:09.523Z,21.30
2019-05-18T20:17:38.567Z,21.20
2019-05-18T20:20:08.479Z,21.10
2019-05-18T20:22:37.084Z,20.90
2019-05-18T20:25:06.795Z,20.80
2019-05-18T20:27:35.393Z,20.70
2019-05-18T20:30:05.091Z,20.60
2019-05-18T20:32:33.704Z,20.50
2019-05-18T20:35:02.277Z,20.40
2019-05-18T20:37:30.931Z,20.30
2019-05-18T20:39:59.491Z,20.20
2019-05-18T20:42:28.080Z,20.10
2019-05-18T20:44:56.646Z,20.00
2019-05-18T20:47:25.229Z,19.90
2019-05-18T20:49:53.820Z,19.80
2019-05-18T20:52:22.389Z,19.70
2019-05-18T20:54:50.987Z,19.60
2019-05-18T20:57:19.549Z,19.50
2019-05-18T20:59:48.145Z,19.40
2019-05-18T21:02:16.794Z,19.30
2019-05-18T21:04:45.474Z,19.20
2019-05-18T21:07:14.129Z,19.10
2019-05-18T21:09:42.740Z,19.00
2019-05-18T21:12:11.328Z,18.90
2019-05-18T21:14:39.965Z,18.80
2019-05-18T21:17:08.573Z,18.70
2019-05-18T21:19:37.156Z,18.70
2019-05-18T21:22:05.804Z,18.60
2019-05-18T21:24:34.393Z,18.60
2019-05-18T21:27:02.966Z,18.40
2019-05-18T21:29:31.554Z,18.20
2019-05-18T21:32:00.124Z,18.10
2019-05-18T21:34:28.711Z,18.10
2019-05-18T21:36:57.305Z,18.00
2019-05-18T21:39:25.877Z,18.00
2019-05-18T21:41:54.715Z,18.00
2019-05-18T21:44:23.302Z,18.00
2019-05-18T21:46:51.879Z,17.90
2019-05-18T21:49:20.470Z,17.90
2019-05-18T21:51:49.046Z,17.80
2019-05-18T21:54:17.707Z,17.70
2019-05-18T21:56:46.291Z,17.70
2019-05-18T21:59:14.864Z,17.60
2019-05-18T22:01:43.499Z,17.60
2019-05-18T22:04:12.100Z,17.50
2019-05-18T22:06:41.014Z,17.40
2019-05-18T22:09:09.656Z,17.30
2019-05-18T22:11:38.220Z,17.20
2019-05-18T22:14:06.812Z,17.10
2019-05-18T22:16:35.452Z,17.10
2019-05-18T22:19:04.039Z,17.00
2019-05-18T22:21:32.599Z,16.90
2019-05-18T22:24:01.188Z,16.80
2019-05-18T22:26:29.777Z,16.80
2019-05-18T22:28:58.416Z,16.70
2019-05-18T22:31:26.964Z,16.60
2019-05-18T22:33:55.565Z,16.50
2019-05-18T22:36:24.132Z,16.50
2019-05-18T22:38:52.795Z,16.40
2019-05-18T22:41:21.394Z,16.30
2019-05-18T22:43:49.947Z,16.30
2019-05-18T22:46:18.511Z,16.20
2019-05-18T22:48:47.087Z,16.10
2019-05-18T22:51:15.673Z,16.10
2019-05-18T22:53:46.556Z,16.00
2019-05-18T22:56:14.487Z,15.90
2019-05-18T22:58:43.059Z,15.80
2019-05-18T23:01:11.720Z,15.80
2019-05-18T23:03:40.298Z,15.70
2019-05-18T23:06:08.892Z,15.70
2019-05-18T23:08:37.456Z,15.70
2019-05-18T23:11:06.043Z,15.60
2019-05-18T23:13:34.603Z,15.60
2019-05-18T23:16:03.201Z,15.50
2019-05-18T23:18:31.770Z,15.50
2019-05-18T23:21:00.363Z,15.40
2019-05-18T23:23:29.016Z,15.40
2019-05-18T23:25:57.661Z,15.30
2019-05-18T23:28:26.209Z,15.30
2019-05-18T23:30:54.799Z,15.20
2019-05-18T23:33:23.371Z,15.20
2019-05-18T23:35:51.968Z,15.20
2019-05-18T23:38:20.603Z,15.20
2019-05-18T23:40:49.189Z,15.10
2019-05-18T23:43:17.763Z,15.00
2019-05-18T23:45:46.355Z,15.00
2019-05-18T23:48:14.939Z,14.90
2019-05-18T23:50:43.529Z,14.80
2019-05-18T23:53:12.095Z,14.70
2019-05-18T23:55:40.723Z,14.70
2019-05-18T23:58:09.260Z,14.60
